Time;durP1;ratioP1;P1;durP2;ratioP2;P2;SDS_P1;SDS_P2;PMS_P1;PMS_P2;Temp;Humidity;BMP_temperature;BMP_pressure;BME280_temperature;BME280_humidity;BME280_pressure;Samples;Min_cycle;Max_cycle;Signal;HPM_P1;HPM_P2
2021/10/07 00:00:54;;;;;;;17.30;8.77;;;;;;;;;;5059271;28;20024;-88
2021/10/07 00:03:21;;;;;;;15.65;9.10;;;;;;;;;;5058881;28;20048;-87
2021/10/07 00:05:47;;;;;;;15.27;9.00;;;;;;;;;;5041475;28;20029;-87
2021/10/07 00:08:13;;;;;;;15.68;9.23;;;;;;;;;;5059011;28;20031;-87
2021/10/07 00:10:39;;;;;;;18.17;8.73;;;;;;;;;;5041172;28;20033;-88
2021/10/07 00:13:05;;;;;;;16.27;8.30;;;;;;;;;;5041227;28;20029;-88
2021/10/07 00:15:31;;;;;;;17.10;8.32;;;;;;;;;;5041078;28;20017;-88
2021/10/07 00:17:57;;;;;;;15.88;7.88;;;;;;;;;;5058917;28;20025;-87
2021/10/07 00:20:24;;;;;;;17.27;7.88;;;;;;;;;;5040951;28;20048;-88
2021/10/07 00:29:04;;;;;;;13.27;7.10;;;;;;;;;;5058473;28;20032;-87
2021/10/07 00:31:34;;;;;;;14.15;7.13;;;;;;;;;;5058510;28;20108;-88
2021/10/07 00:39:39;;;;;;;13.02;6.82;;;;;;;;;;5058304;28;20071;-86
2021/10/07 00:42:05;;;;;;;18.15;7.00;;;;;;;;;;5051967;28;20045;-87
2021/10/07 00:44:32;;;;;;;13.15;7.00;;;;;;;;;;5058297;28;20055;-86
2021/10/07 00:46:59;;;;;;;11.70;6.70;;;;;;;;;;5058301;28;20032;-86
2021/10/07 00:49:26;;;;;;;14.20;7.28;;;;;;;;;;5058361;28;20355;-86
2021/10/07 00:51:52;;;;;;;13.52;7.15;;;;;;;;;;5058154;28;20029;-86
2021/10/07 00:54:19;;;;;;;12.15;7.40;;;;;;;;;;5057575;28;20143;-86
2021/10/07 00:56:45;;;;;;;13.23;7.28;;;;;;;;;;5057831;28;20348;-87
2021/10/07 00:59:11;;;;;;;13.60;6.82;;;;;;;;;;5057932;28;20070;-86
2021/10/07 01:01:38;;;;;;;12.40;6.90;;;;;;;;;;5057907;28;20051;-87
2021/10/07 01:04:04;;;;;;;12.13;6.38;;;;;;;;;;5057798;28;20025;-88
2021/10/07 01:06:30;;;;;;;14.82;6.20;;;;;;;;;;5058069;28;20035;-86
2021/10/07 01:08:57;;;;;;;13.52;6.07;;;;;;;;;;5055992;28;20121;-85
2021/10/07 01:11:23;;;;;;;13.98;7.00;;;;;;;;;;5057800;28;20032;-85
2021/10/07 01:13:49;;;;;;;15.10;7.22;;;;;;;;;;5057826;28;20025;-86
2021/10/07 01:16:18;;;;;;;14.73;7.13;;;;;;;;;;5057871;28;20021;-86
2021/10/07 01:18:45;;;;;;;15.82;6.28;;;;;;;;;;5057612;28;20025;-86
2021/10/07 01:21:12;;;;;;;14.70;8.23;;;;;;;;;;5057572;28;20071;-86
2021/10/07 01:23:42;;;;;;;15.70;6.63;;;;;;;;;;5056389;28;20025;-86
2021/10/07 01:26:13;;;;;;;11.20;6.20;;;;;;;;;;5057384;28;20036;-86
2021/10/07 01:28:44;;;;;;;11.27;6.13;;;;;;;;;;5057687;28;20040;-87
2021/10/07 01:31:10;;;;;;;11.60;6.82;;;;;;;;;;5057708;28;20319;-87
2021/10/07 01:33:37;;;;;;;14.02;6.18;;;;;;;;;;5057722;28;20051;-86
2021/10/07 01:36:03;;;;;;;12.18;5.90;;;;;;;;;;5056478;28;20403;-86
2021/10/07 01:38:30;;;;;;;10.00;5.82;;;;;;;;;;5057150;28;20030;-87
2021/10/07 01:40:56;;;;;;;10.00;6.00;;;;;;;;;;5057419;28;20048;-87
2021/10/07 01:43:22;;;;;;;18.17;6.30;;;;;;;;;;5039777;28;20029;-87
2021/10/07 01:45:49;;;;;;;12.95;6.13;;;;;;;;;;5057132;28;20025;-87
2021/10/07 01:48:15;;;;;;;17.60;6.82;;;;;;;;;;5057339;28;20029;-87
2021/10/07 01:50:41;;;;;;;15.35;5.75;;;;;;;;;;5057570;28;20044;-86
2021/10/07 01:56:11;;;;;;;12.60;5.72;;;;;;;;;;5057450;28;20039;-86
2021/10/07 01:58:37;;;;;;;15.95;6.28;;;;;;;;;;5056872;28;20399;-86
2021/10/07 02:01:03;;;;;;;11.93;5.10;;;;;;;;;;5057470;28;20311;-86
2021/10/07 02:03:29;;;;;;;9.02;5.75;;;;;;;;;;5057538;28;20060;-86
2021/10/07 02:05:55;;;;;;;12.50;5.20;;;;;;;;;;5057348;28;20021;-85
2021/10/07 02:11:25;;;;;;;12.73;5.78;;;;;;;;;;5057250;28;20043;-85
2021/10/07 02:13:52;;;;;;;8.45;5.13;;;;;;;;;;5057046;28;20403;-86
2021/10/07 02:16:18;;;;;;;8.43;5.32;;;;;;;;;;5057103;28;20029;-85
2021/10/07 02:18:44;;;;;;;9.77;5.80;;;;;;;;;;5057081;28;20025;-86
2021/10/07 02:21:10;;;;;;;14.20;5.60;;;;;;;;;;5060079;28;20021;-85
2021/10/07 02:24:13;;;;;;;11.27;5.60;;;;;;;;;;5061073;28;20044;-86
2021/10/07 02:26:39;;;;;;;10.73;5.25;;;;;;;;;;5060791;28;20060;-85
2021/10/07 02:29:06;;;;;;;11.48;5.40;;;;;;;;;;5060691;28;20017;-86
2021/10/07 02:31:32;;;;;;;11.15;5.20;;;;;;;;;;5042994;28;20074;-86
2021/10/07 02:33:58;;;;;;;9.25;5.72;;;;;;;;;;5060764;28;20021;-85
2021/10/07 02:36:24;;;;;;;10.48;5.90;;;;;;;;;;5043246;28;20028;-85
2021/10/07 02:41:54;;;;;;;13.25;6.70;;;;;;;;;;5059040;28;20381;-85
2021/10/07 02:44:20;;;;;;;15.30;7.20;;;;;;;;;;5043112;28;20072;-85
2021/10/07 02:46:46;;;;;;;12.48;7.38;;;;;;;;;;5060660;28;20033;-85
2021/10/07 02:49:12;;;;;;;12.20;7.10;;;;;;;;;;5042844;28;20033;-86
2021/10/07 02:51:38;;;;;;;11.43;7.22;;;;;;;;;;5060386;28;20071;-85
2021/10/07 02:57:08;;;;;;;14.88;8.07;;;;;;;;;;5060179;28;20028;-87
2021/10/07 02:59:34;;;;;;;15.63;7.05;;;;;;;;;;5060106;28;20025;-87
2021/10/07 03:02:00;;;;;;;13.65;7.30;;;;;;;;;;5060270;28;20025;-88
2021/10/07 03:04:26;;;;;;;13.02;7.25;;;;;;;;;;5060520;28;20049;-87
2021/10/07 03:06:52;;;;;;;12.95;6.78;;;;;;;;;;5042603;28;20029;-87
2021/10/07 03:09:18;;;;;;;11.23;6.20;;;;;;;;;;5059985;28;20111;-87
2021/10/07 03:11:44;;;;;;;11.10;6.10;;;;;;;;;;5041966;28;20033;-88
2021/10/07 03:14:10;;;;;;;9.35;5.85;;;;;;;;;;5059880;28;20103;-88
2021/10/07 03:16:36;;;;;;;10.77;6.03;;;;;;;;;;5059829;28;20025;-89
2021/10/07 03:19:02;;;;;;;10.98;6.18;;;;;;;;;;5060036;28;20354;-90
2021/10/07 03:21:28;;;;;;;12.05;6.07;;;;;;;;;;5060058;28;20028;-89
2021/10/07 03:23:55;;;;;;;9.07;5.40;;;;;;;;;;5042287;28;20029;-89
2021/10/07 03:26:21;;;;;;;10.05;5.80;;;;;;;;;;5059966;28;20307;-87
2021/10/07 03:28:47;;;;;;;12.88;5.80;;;;;;;;;;5059658;28;20052;-87
2021/10/07 03:31:13;;;;;;;6.65;4.70;;;;;;;;;;5058933;28;20036;-86
2021/10/07 03:33:39;;;;;;;8.77;5.07;;;;;;;;;;5059179;28;20147;-85
2021/10/07 03:36:05;;;;;;;8.10;5.30;;;;;;;;;;5059356;28;20028;-85
2021/10/07 03:38:31;;;;;;;8.60;4.70;;;;;;;;;;5041697;28;20030;-86
2021/10/07 03:40:57;;;;;;;8.93;5.15;;;;;;;;;;5059479;28;20037;-85
2021/10/07 03:43:24;;;;;;;10.38;5.40;;;;;;;;;;5059077;28;20041;-84
2021/10/07 03:45:50;;;;;;;6.15;4.10;;;;;;;;;;5041600;28;20025;-86
2021/10/07 03:48:16;;;;;;;8.65;4.88;;;;;;;;;;5041578;28;20021;-86
2021/10/07 03:50:42;;;;;;;8.05;4.55;;;;;;;;;;5041554;28;20047;-86
2021/10/07 03:56:12;;;;;;;9.10;4.15;;;;;;;;;;5059495;28;20071;-92
2021/10/07 03:58:38;;;;;;;10.48;4.40;;;;;;;;;;5041653;28;20443;-91
2021/10/07 04:01:04;;;;;;;10.75;4.60;;;;;;;;;;5059237;28;20350;-90
2021/10/07 04:03:30;;;;;;;11.15;4.60;;;;;;;;;;5041866;28;20048;-90
2021/10/07 04:05:57;;;;;;;8.07;4.80;;;;;;;;;;5041349;28;20025;-90
2021/10/07 04:11:27;;;;;;;10.02;4.30;;;;;;;;;;5058981;28;20040;-89
2021/10/07 04:13:53;;;;;;;8.55;4.03;;;;;;;;;;5058648;28;20017;-89
2021/10/07 04:16:19;;;;;;;9.55;4.20;;;;;;;;;;5041320;28;20419;-89
2021/10/07 04:18:45;;;;;;;8.70;3.92;;;;;;;;;;5058780;28;20021;-84
2021/10/07 04:21:12;;;;;;;7.03;3.90;;;;;;;;;;5058299;28;20049;-83
2021/10/07 04:26:41;;;;;;;10.10;4.10;;;;;;;;;;5058592;28;20047;-87
2021/10/07 04:29:08;;;;;;;8.23;3.78;;;;;;;;;;5040857;28;20025;-87
2021/10/07 04:31:34;;;;;;;12.35;4.40;;;;;;;;;;5058441;28;20035;-88
2021/10/07 04:34:00;;;;;;;9.60;4.85;;;;;;;;;;5058460;28;20021;-87
2021/10/07 04:36:26;;;;;;;12.88;5.57;;;;;;;;;;5058255;28;20032;-88
2021/10/07 04:38:52;;;;;;;15.38;5.05;;;;;;;;;;5040467;28;20505;-85
2021/10/07 04:41:18;;;;;;;9.77;3.53;;;;;;;;;;5058286;28;20079;-85
2021/10/07 04:43:44;;;;;;;10.80;4.22;;;;;;;;;;5057473;28;20056;-85
2021/10/07 04:46:10;;;;;;;9.13;4.03;;;;;;;;;;5048175;28;20114;-85
2021/10/07 04:48:36;;;;;;;10.88;4.15;;;;;;;;;;5057183;28;20036;-86
2021/10/07 04:51:02;;;;;;;10.20;4.85;;;;;;;;;;5051631;28;20120;-84
2021/10/07 04:53:48;;;;;;;8.77;3.20;;;;;;;;;;5040260;28;20060;-90
2021/10/07 04:56:17;;;;;;;6.47;3.28;;;;;;;;;;5051689;28;20063;-91
2021/10/07 04:58:43;;;;;;;12.82;5.20;;;;;;;;;;5042838;28;20049;-80
2021/10/07 05:01:09;;;;;;;12.38;4.30;;;;;;;;;;5047123;28;20111;-79
2021/10/07 05:03:35;;;;;;;15.05;4.15;;;;;;;;;;5037669;28;20071;-79
2021/10/07 05:06:01;;;;;;;5.85;3.42;;;;;;;;;;5037431;28;20021;-80
2021/10/07 05:08:27;;;;;;;6.32;3.38;;;;;;;;;;5019663;28;20021;-80
2021/10/07 05:10:54;;;;;;;8.75;3.92;;;;;;;;;;5037153;28;20026;-79
2021/10/07 05:13:20;;;;;;;7.53;3.22;;;;;;;;;;5037126;28;20446;-80
2021/10/07 05:15:46;;;;;;;12.82;3.47;;;;;;;;;;5037184;28;20045;-79
2021/10/07 05:18:12;;;;;;;11.93;4.78;;;;;;;;;;5037273;28;20025;-80
2021/10/07 05:20:38;;;;;;;8.68;3.72;;;;;;;;;;5036891;28;20025;-79
2021/10/07 05:23:05;;;;;;;10.57;4.47;;;;;;;;;;5019562;28;20064;-80
2021/10/07 05:25:32;;;;;;;8.55;3.80;;;;;;;;;;5037067;28;20352;-79
2021/10/07 05:27:58;;;;;;;12.40;4.15;;;;;;;;;;5036921;28;20031;-80
2021/10/07 05:30:24;;;;;;;9.52;3.60;;;;;;;;;;5019408;28;20083;-79
2021/10/07 05:32:50;;;;;;;7.90;3.30;;;;;;;;;;5037127;28;20109;-80
2021/10/07 05:35:16;;;;;;;8.18;3.63;;;;;;;;;;5019147;28;20018;-80
2021/10/07 05:37:42;;;;;;;11.13;3.33;;;;;;;;;;5036634;28;20084;-79
2021/10/07 05:40:09;;;;;;;8.18;4.35;;;;;;;;;;5019383;28;20026;-79
2021/10/07 05:42:35;;;;;;;11.80;5.43;;;;;;;;;;5036683;28;20053;-80
2021/10/07 05:45:02;;;;;;;10.27;5.00;;;;;;;;;;5037029;28;20375;-80
2021/10/07 05:47:28;;;;;;;10.00;3.60;;;;;;;;;;5037029;28;20315;-80
2021/10/07 05:49:54;;;;;;;8.45;3.80;;;;;;;;;;5036908;28;20030;-80
2021/10/07 05:52:20;;;;;;;51.33;17.95;;;;;;;;;;5036704;28;20032;-80
2021/10/07 05:54:46;;;;;;;28.63;15.40;;;;;;;;;;5037230;28;20022;-80
2021/10/07 05:57:13;;;;;;;14.57;6.75;;;;;;;;;;5040816;28;20435;-80
2021/10/07 05:59:39;;;;;;;8.35;4.65;;;;;;;;;;5040708;28;20032;-80
2021/10/07 06:02:06;;;;;;;9.35;4.63;;;;;;;;;;5040823;28;20029;-80
2021/10/07 06:04:32;;;;;;;8.77;4.18;;;;;;;;;;5023356;28;20030;-80
2021/10/07 06:06:59;;;;;;;8.20;4.10;;;;;;;;;;5040308;28;20029;-80
2021/10/07 06:09:25;;;;;;;9.60;4.05;;;;;;;;;;5040053;28;20108;-79
2021/10/07 06:11:51;;;;;;;8.65;3.28;;;;;;;;;;5040647;28;20044;-79
2021/10/07 06:14:17;;;;;;;8.07;4.20;;;;;;;;;;5040567;28;20068;-80
2021/10/07 06:16:43;;;;;;;9.32;3.88;;;;;;;;;;5040429;28;20030;-79
2021/10/07 06:19:15;;;;;;;7.20;3.75;;;;;;;;;;5040574;28;20381;-80
2021/10/07 06:21:41;;;;;;;9.77;3.97;;;;;;;;;;5040563;28;20022;-80
2021/10/07 06:24:07;;;;;;;10.43;4.40;;;;;;;;;;5040409;28;20105;-80
2021/10/07 06:26:33;;;;;;;10.45;3.67;;;;;;;;;;5040019;28;20167;-80
2021/10/07 06:28:59;;;;;;;12.20;5.07;;;;;;;;;;5039861;28;20048;-79
2021/10/07 06:31:25;;;;;;;5.38;3.40;;;;;;;;;;5040048;28;20022;-80
2021/10/07 06:33:51;;;;;;;9.80;3.60;;;;;;;;;;5022328;28;20099;-80
2021/10/07 06:36:17;;;;;;;6.93;3.58;;;;;;;;;;5040054;28;20033;-80
2021/10/07 06:38:44;;;;;;;10.55;4.00;;;;;;;;;;5022296;28;20032;-80
2021/10/07 06:41:10;;;;;;;14.18;5.68;;;;;;;;;;5040100;28;20033;-80
2021/10/07 06:43:36;;;;;;;13.18;5.85;;;;;;;;;;5036850;28;20045;-79
2021/10/07 06:46:02;;;;;;;17.23;9.15;;;;;;;;;;5039822;28;20428;-80
2021/10/07 06:48:28;;;;;;;14.55;7.85;;;;;;;;;;5039907;28;20462;-79
2021/10/07 06:50:54;;;;;;;14.50;6.90;;;;;;;;;;5039949;28;20044;-79
2021/10/07 06:53:20;;;;;;;13.32;6.38;;;;;;;;;;5039719;28;20293;-80
2021/10/07 06:55:46;;;;;;;10.48;5.47;;;;;;;;;;5039494;28;20036;-80
2021/10/07 06:58:13;;;;;;;8.07;4.05;;;;;;;;;;5039694;28;20032;-80
2021/10/07 07:00:40;;;;;;;7.03;3.42;;;;;;;;;;5039617;28;20032;-79
2021/10/07 07:03:06;;;;;;;9.55;4.93;;;;;;;;;;5039532;28;20021;-79
2021/10/07 07:05:32;;;;;;;13.27;4.88;;;;;;;;;;5039575;28;20029;-80
2021/10/07 07:07:58;;;;;;;10.23;4.43;;;;;;;;;;5038122;28;20419;-79
2021/10/07 07:10:24;;;;;;;14.30;4.90;;;;;;;;;;5039694;28;20036;-80
2021/10/07 07:12:51;;;;;;;10.90;4.88;;;;;;;;;;5038324;28;20111;-79
2021/10/07 07:15:17;;;;;;;12.23;8.60;;;;;;;;;;5049971;28;20103;-77
2021/10/07 07:17:44;;;;;;;16.85;13.02;;;;;;;;;;5077590;28;20025;-77
2021/10/07 07:20:10;;;;;;;36.38;25.90;;;;;;;;;;5062703;28;20033;-77
2021/10/07 07:22:37;;;;;;;21.38;15.73;;;;;;;;;;5058144;28;20029;-77
2021/10/07 07:25:04;;;;;;;10.98;6.35;;;;;;;;;;5059102;28;20032;-77
2021/10/07 07:27:30;;;;;;;15.57;6.22;;;;;;;;;;5059317;28;20025;-77
2021/10/07 07:29:56;;;;;;;10.77;5.97;;;;;;;;;;5058951;28;20407;-77
2021/10/07 07:32:22;;;;;;;14.98;6.20;;;;;;;;;;5057525;28;20068;-77
2021/10/07 07:34:48;;;;;;;10.05;6.90;;;;;;;;;;5058600;28;20017;-77
2021/10/07 07:37:14;;;;;;;29.42;25.05;;;;;;;;;;5059039;28;20426;-77
2021/10/07 07:39:40;;;;;;;32.58;29.20;;;;;;;;;;5058683;28;20037;-85
2021/10/07 07:42:07;;;;;;;21.45;17.77;;;;;;;;;;5057454;28;20075;-77
2021/10/07 07:44:33;;;;;;;13.77;8.15;;;;;;;;;;5057708;28;20121;-78
2021/10/07 07:46:59;;;;;;;10.57;5.97;;;;;;;;;;5056554;28;20036;-77
2021/10/07 08:00:06;;;;;;;10.63;5.57;;;;;;;;;;5114553;27;20185;-80
2021/10/07 08:02:32;;;;;;;24.45;21.00;;;;;;;;;;5113388;28;20367;-80
2021/10/07 08:04:58;;;;;;;26.90;24.08;;;;;;;;;;5114831;28;20027;-80
2021/10/07 08:07:24;;;;;;;20.00;14.75;;;;;;;;;;5114482;28;20290;-78
2021/10/07 08:09:50;;;;;;;16.50;9.70;;;;;;;;;;5114455;28;20316;-78
2021/10/07 08:12:17;;;;;;;15.43;7.82;;;;;;;;;;5113083;28;20062;-78
2021/10/07 08:14:44;;;;;;;11.68;6.97;;;;;;;;;;5114372;28;20024;-77
2021/10/07 08:17:10;;;;;;;11.82;5.88;;;;;;;;;;5114276;28;20430;-78
2021/10/07 08:19:37;;;;;;;10.43;4.43;;;;;;;;;;5113187;28;20019;-78
2021/10/07 08:22:03;;;;;;;10.43;6.32;;;;;;;;;;5114267;28;20028;-78
2021/10/07 08:24:29;;;;;;;22.67;10.95;;;;;;;;;;5113065;28;20031;-79
2021/10/07 08:26:56;;;;;;;16.58;6.28;;;;;;;;;;5113848;28;20059;-78
2021/10/07 08:29:22;;;;;;;17.90;8.65;;;;;;;;;;5113421;28;20032;-78
2021/10/07 08:31:48;;;;;;;9.25;5.35;;;;;;;;;;5113723;28;20362;-78
2021/10/07 08:34:14;;;;;;;10.98;5.60;;;;;;;;;;5113969;28;20050;-78
2021/10/07 08:36:44;;;;;;;9.85;5.25;;;;;;;;;;5114099;28;20073;-78
2021/10/07 08:39:10;;;;;;;10.13;5.07;;;;;;;;;;5107680;28;20029;-78
2021/10/07 08:41:38;;;;;;;8.30;4.85;;;;;;;;;;5093326;28;20363;-78
2021/10/07 08:44:04;;;;;;;10.40;4.28;;;;;;;;;;5094791;28;20374;-77
2021/10/07 08:46:30;;;;;;;10.45;3.92;;;;;;;;;;5113816;28;20324;-78
2021/10/07 08:48:57;;;;;;;9.90;4.55;;;;;;;;;;5113870;28;20283;-78
2021/10/07 08:51:23;;;;;;;8.13;4.68;;;;;;;;;;5112581;28;20431;-78
2021/10/07 08:53:49;;;;;;;11.25;5.00;;;;;;;;;;5113596;28;20035;-78
2021/10/07 08:56:15;;;;;;;19.65;4.97;;;;;;;;;;5113466;28;20024;-78
2021/10/07 08:58:41;;;;;;;9.05;4.95;;;;;;;;;;5112864;28;20058;-78
2021/10/07 09:01:07;;;;;;;9.13;5.35;;;;;;;;;;5098444;28;20024;-78
2021/10/07 09:03:40;;;;;;;13.65;5.40;;;;;;;;;;5099900;28;20077;-79
2021/10/07 09:06:10;;;;;;;14.23;5.47;;;;;;;;;;5099112;28;20161;-77
2021/10/07 09:08:42;;;;;;;15.43;6.50;;;;;;;;;;5099660;28;20066;-77
2021/10/07 09:11:08;;;;;;;14.13;5.43;;;;;;;;;;5099812;28;20020;-78
2021/10/07 09:13:36;;;;;;;15.85;6.05;;;;;;;;;;5099704;28;20111;-78
2021/10/07 09:16:02;;;;;;;15.50;6.13;;;;;;;;;;5098962;28;20039;-78
2021/10/07 09:18:30;;;;;;;13.45;5.57;;;;;;;;;;5099393;28;20031;-78
2021/10/07 09:20:56;;;;;;;15.73;5.68;;;;;;;;;;5099773;28;20065;-78
2021/10/07 09:23:26;;;;;;;10.45;5.85;;;;;;;;;;5099454;28;20031;-78
2021/10/07 09:26:00;;;;;;;14.98;6.78;;;;;;;;;;5098734;28;20452;-77
2021/10/07 09:28:29;;;;;;;11.52;5.63;;;;;;;;;;5098962;28;20406;-77
2021/10/07 09:30:56;;;;;;;12.18;5.68;;;;;;;;;;5099319;28;20020;-78
2021/10/07 09:33:26;;;;;;;13.65;5.85;;;;;;;;;;5099460;28;20024;-78
2021/10/07 09:36:08;;;;;;;16.10;8.13;;;;;;;;;;5099195;28;20031;-78
2021/10/07 09:38:35;;;;;;;17.13;7.40;;;;;;;;;;5099097;28;20036;-78
2021/10/07 09:41:11;;;;;;;14.02;6.05;;;;;;;;;;5098265;28;20028;-83
2021/10/07 09:43:48;;;;;;;11.27;5.25;;;;;;;;;;5099165;28;20322;-78
2021/10/07 09:46:34;;;;;;;16.00;5.80;;;;;;;;;;5088984;28;20062;-78
2021/10/07 09:49:00;;;;;;;23.27;6.55;;;;;;;;;;5077556;28;20029;-78
2021/10/07 09:51:36;;;;;;;15.85;5.82;;;;;;;;;;5079168;28;20050;-78
2021/10/07 09:54:04;;;;;;;19.08;5.65;;;;;;;;;;5078622;28;20097;-77
2021/10/07 09:56:31;;;;;;;17.88;5.50;;;;;;;;;;5078495;28;20021;-79
2021/10/07 09:58:58;;;;;;;16.95;5.95;;;;;;;;;;5087554;28;20109;-78
2021/10/07 10:01:24;;;;;;;12.80;5.93;;;;;;;;;;5098758;28;20039;-77
2021/10/07 10:03:50;;;;;;;17.13;5.85;;;;;;;;;;5098982;28;20046;-78
2021/10/07 10:06:16;;;;;;;13.13;5.30;;;;;;;;;;5098917;28;20027;-78
2021/10/07 10:08:42;;;;;;;17.98;5.75;;;;;;;;;;5097495;28;20431;-78
2021/10/07 10:11:08;;;;;;;16.48;7.10;;;;;;;;;;5097721;28;20024;-78
2021/10/07 10:13:34;;;;;;;10.48;6.10;;;;;;;;;;5098721;28;20020;-78
2021/10/07 10:16:01;;;;;;;17.98;7.47;;;;;;;;;;5084980;28;20024;-78
2021/10/07 10:18:28;;;;;;;20.52;10.35;;;;;;;;;;5078387;28;20028;-77
2021/10/07 10:20:55;;;;;;;27.90;12.88;;;;;;;;;;5078288;28;20028;-78
2021/10/07 10:23:22;;;;;;;18.23;9.60;;;;;;;;;;5078074;28;20029;-78
2021/10/07 10:25:59;;;;;;;18.83;7.93;;;;;;;;;;5077219;28;20441;-78
2021/10/07 10:28:31;;;;;;;19.67;9.40;;;;;;;;;;5082390;28;20299;-77
2021/10/07 10:31:04;;;;;;;15.70;9.18;;;;;;;;;;5098242;28;20039;-78
2021/10/07 10:33:31;;;;;;;18.65;7.88;;;;;;;;;;5098211;28;20291;-78
2021/10/07 10:35:58;;;;;;;19.95;9.85;;;;;;;;;;5097060;28;20024;-78
2021/10/07 10:38:24;;;;;;;23.10;8.55;;;;;;;;;;5097771;28;20039;-77
2021/10/07 10:40:50;;;;;;;21.02;8.50;;;;;;;;;;5096539;28;20020;-78
2021/10/07 10:43:19;;;;;;;15.18;6.20;;;;;;;;;;5097277;28;20064;-78
2021/10/07 10:45:49;;;;;;;13.63;6.65;;;;;;;;;;5096450;28;20039;-78
2021/10/07 10:48:33;;;;;;;18.90;6.32;;;;;;;;;;5097813;28;20027;-78
2021/10/07 10:51:02;;;;;;;13.73;6.22;;;;;;;;;;5097863;28;20074;-78
2021/10/07 10:53:28;;;;;;;13.40;6.15;;;;;;;;;;5097772;28;20024;-78
2021/10/07 10:55:54;;;;;;;17.75;7.10;;;;;;;;;;5096728;28;20034;-78
2021/10/07 10:58:20;;;;;;;20.05;7.22;;;;;;;;;;5096899;28;20426;-78
2021/10/07 11:00:48;;;;;;;20.88;5.68;;;;;;;;;;5097616;28;20417;-78
2021/10/07 11:03:23;;;;;;;19.17;5.68;;;;;;;;;;5097877;28;20036;-78
2021/10/07 11:06:02;;;;;;;18.63;4.60;;;;;;;;;;5097575;28;20356;-78
2021/10/07 11:08:29;;;;;;;21.40;5.78;;;;;;;;;;5097325;28;20031;-79
2021/10/07 11:10:56;;;;;;;23.33;6.97;;;;;;;;;;5097490;28;20406;-78
2021/10/07 11:13:26;;;;;;;19.63;5.85;;;;;;;;;;5097315;28;20016;-78
2021/10/07 11:15:58;;;;;;;21.23;6.32;;;;;;;;;;5097681;28;20024;-78
2021/10/07 11:18:28;;;;;;;25.30;7.47;;;;;;;;;;5097014;28;20024;-77
2021/10/07 11:20:58;;;;;;;19.13;6.45;;;;;;;;;;5097197;28;20040;-78
2021/10/07 11:23:25;;;;;;;34.15;5.95;;;;;;;;;;5095739;28;20035;-78
2021/10/07 11:25:54;;;;;;;16.20;6.03;;;;;;;;;;5096042;28;20024;-78
2021/10/07 11:28:26;;;;;;;21.90;6.10;;;;;;;;;;5096785;28;20341;-78
2021/10/07 11:30:52;;;;;;;21.00;6.22;;;;;;;;;;5097468;28;20095;-78
2021/10/07 11:33:24;;;;;;;27.92;6.07;;;;;;;;;;5096140;28;20020;-78
2021/10/07 11:35:56;;;;;;;18.83;6.18;;;;;;;;;;5096009;28;20046;-78
2021/10/07 11:38:22;;;;;;;24.45;5.47;;;;;;;;;;5095690;28;20328;-78
2021/10/07 11:40:53;;;;;;;17.50;5.60;;;;;;;;;;5097052;28;20035;-78
2021/10/07 11:43:29;;;;;;;19.35;5.30;;;;;;;;;;5097434;28;20032;-89
2021/10/07 11:45:56;;;;;;;26.50;6.05;;;;;;;;;;5097535;28;20039;-89
2021/10/07 11:48:23;;;;;;;20.65;5.22;;;;;;;;;;5097321;28;20028;-87
2021/10/07 11:50:54;;;;;;;18.63;5.07;;;;;;;;;;5097552;28;20146;-87
2021/10/07 11:53:29;;;;;;;17.70;4.35;;;;;;;;;;5097988;28;20020;-87
2021/10/07 11:55:55;;;;;;;18.50;4.72;;;;;;;;;;5097571;28;20143;-88
2021/10/07 11:58:21;;;;;;;17.27;5.13;;;;;;;;;;5088229;28;20052;-87
2021/10/07 12:00:49;;;;;;;20.30;4.72;;;;;;;;;;5087389;28;20388;-88
2021/10/07 12:03:36;;;;;;;23.48;4.78;;;;;;;;;;5077358;28;20318;-88
2021/10/07 12:06:03;;;;;;;15.32;4.40;;;;;;;;;;5077233;28;20036;-88
2021/10/07 12:08:31;;;;;;;17.88;4.72;;;;;;;;;;5077386;28;20029;-88
2021/10/07 12:11:01;;;;;;;17.05;4.53;;;;;;;;;;5077630;28;20305;-87
2021/10/07 12:13:29;;;;;;;22.92;4.78;;;;;;;;;;5077323;28;20299;-88
2021/10/07 12:16:16;;;;;;;25.33;4.82;;;;;;;;;;5077180;28;20016;-89
2021/10/07 12:18:43;;;;;;;21.88;5.32;;;;;;;;;;5077703;28;20029;-88
2021/10/07 12:21:09;;;;;;;23.02;4.53;;;;;;;;;;5077254;28;20025;-88
2021/10/07 12:23:49;;;;;;;20.38;5.35;;;;;;;;;;5077166;28;20512;-88
2021/10/07 12:26:34;;;;;;;23.98;6.15;;;;;;;;;;5077974;28;20106;-76
2021/10/07 12:29:01;;;;;;;19.42;4.82;;;;;;;;;;5085180;28;20414;-76
2021/10/07 12:31:32;;;;;;;25.70;5.57;;;;;;;;;;5096424;28;20026;-76
2021/10/07 12:34:02;;;;;;;19.65;5.20;;;;;;;;;;5096491;28;20410;-77
2021/10/07 12:36:32;;;;;;;13.93;4.38;;;;;;;;;;5100297;28;20078;-77
2021/10/07 12:38:59;;;;;;;16.60;3.95;;;;;;;;;;5100220;28;20073;-77
2021/10/07 12:41:36;;;;;;;16.15;3.83;;;;;;;;;;5099427;28;20360;-76
2021/10/07 12:44:03;;;;;;;16.35;4.80;;;;;;;;;;5091384;28;20089;-77
2021/10/07 12:46:29;;;;;;;17.27;4.95;;;;;;;;;;5098777;28;20070;-76
2021/10/07 12:48:55;;;;;;;22.73;5.00;;;;;;;;;;5098831;28;20112;-77
2021/10/07 12:51:23;;;;;;;18.85;4.63;;;;;;;;;;5099072;28;20028;-76
2021/10/07 12:53:49;;;;;;;14.60;4.43;;;;;;;;;;5098395;28;20397;-76
2021/10/07 12:56:17;;;;;;;13.15;4.47;;;;;;;;;;5100138;28;20043;-76
2021/10/07 12:58:54;;;;;;;14.68;5.03;;;;;;;;;;5098265;28;20075;-76
2021/10/07 13:01:21;;;;;;;17.30;3.97;;;;;;;;;;5099846;28;20021;-76
2021/10/07 13:03:47;;;;;;;13.98;4.85;;;;;;;;;;5099792;28;20070;-76
2021/10/07 13:06:27;;;;;;;19.30;4.50;;;;;;;;;;5099803;28;20032;-76
2021/10/07 13:08:53;;;;;;;14.18;4.15;;;;;;;;;;5099698;28;20024;-76
2021/10/07 13:11:19;;;;;;;15.05;4.53;;;;;;;;;;5099552;28;20279;-76
2021/10/07 13:13:46;;;;;;;12.10;4.95;;;;;;;;;;5091613;28;20016;-75
2021/10/07 13:16:12;;;;;;;17.75;4.50;;;;;;;;;;5099558;28;20410;-75
2021/10/07 13:18:38;;;;;;;17.15;5.55;;;;;;;;;;5100060;28;20409;-89
2021/10/07 13:24:08;;;;;;;15.20;4.57;;;;;;;;;;5080281;28;20050;-91
2021/10/07 13:26:37;;;;;;;13.73;4.50;;;;;;;;;;5078990;28;20029;-89
2021/10/07 13:29:04;;;;;;;14.23;3.53;;;;;;;;;;5088233;28;20040;-90
2021/10/07 13:31:31;;;;;;;31.80;4.13;;;;;;;;;;5100148;28;20016;-89
2021/10/07 13:33:57;;;;;;;50.53;5.60;;;;;;;;;;5099271;28;20066;-89
2021/10/07 13:36:41;;;;;;;23.13;4.55;;;;;;;;;;5099044;28;20420;-89
2021/10/07 13:39:07;;;;;;;16.08;3.72;;;;;;;;;;5099185;28;20062;-89
2021/10/07 13:41:34;;;;;;;21.55;5.80;;;;;;;;;;5099996;28;20040;-89
2021/10/07 13:44:00;;;;;;;21.08;4.75;;;;;;;;;;5099026;28;20024;-89
2021/10/07 13:46:26;;;;;;;21.85;4.90;;;;;;;;;;5099829;28;20032;-88
2021/10/07 13:48:53;;;;;;;20.02;4.97;;;;;;;;;;5099991;28;20032;-89
2021/10/07 13:51:19;;;;;;;22.52;4.07;;;;;;;;;;5099737;28;20099;-89
2021/10/07 13:53:45;;;;;;;14.77;3.97;;;;;;;;;;5098702;28;20016;-90
2021/10/07 13:56:11;;;;;;;19.23;4.75;;;;;;;;;;5098887;28;20024;-90
2021/10/07 13:58:37;;;;;;;12.38;3.55;;;;;;;;;;5093515;28;20049;-89
2021/10/07 14:01:03;;;;;;;14.45;3.70;;;;;;;;;;5079277;28;20048;-89
2021/10/07 14:03:29;;;;;;;18.27;4.07;;;;;;;;;;5079297;28;20021;-89
2021/10/07 14:09:17;;;;;;;22.42;4.22;;;;;;;;;;5079171;28;20085;-89
2021/10/07 14:11:44;;;;;;;26.83;5.47;;;;;;;;;;5079287;28;20055;-90
2021/10/07 14:14:10;;;;;;;23.30;4.93;;;;;;;;;;5078070;28;20142;-89
2021/10/07 14:16:36;;;;;;;27.08;4.72;;;;;;;;;;5078846;28;20025;-85
2021/10/07 14:19:03;;;;;;;23.15;4.13;;;;;;;;;;5079027;28;20319;-84
2021/10/07 14:21:48;;;;;;;55.53;6.28;;;;;;;;;;5077963;28;20077;-84
2021/10/07 14:24:14;;;;;;;14.85;4.28;;;;;;;;;;5078877;28;20025;-84
2021/10/07 14:26:40;;;;;;;47.00;5.30;;;;;;;;;;5077638;28;20021;-84
2021/10/07 14:29:06;;;;;;;21.67;4.47;;;;;;;;;;5078229;28;20059;-85
2021/10/07 14:31:32;;;;;;;383.58;26.70;;;;;;;;;;5077612;28;20024;-84
2021/10/07 14:33:58;;;;;;;124.40;11.60;;;;;;;;;;5078819;28;20025;-84
2021/10/07 14:36:24;;;;;;;192.73;14.40;;;;;;;;;;5078614;28;20033;-85
2021/10/07 14:38:50;;;;;;;177.73;12.77;;;;;;;;;;5078692;28;20063;-84
2021/10/07 14:41:16;;;;;;;77.47;8.35;;;;;;;;;;5078666;28;20024;-85
2021/10/07 14:43:43;;;;;;;11.13;4.28;;;;;;;;;;5078561;28;20031;-84
2021/10/07 14:46:09;;;;;;;16.30;4.30;;;;;;;;;;5077513;28;20477;-84
2021/10/07 14:48:35;;;;;;;19.77;4.82;;;;;;;;;;5077491;28;20029;-84
2021/10/07 14:54:04;;;;;;;21.00;4.10;;;;;;;;;;5078196;28;20066;-85
2021/10/07 14:56:31;;;;;;;26.10;3.92;;;;;;;;;;5076836;28;20028;-84
2021/10/07 14:58:57;;;;;;;13.52;3.75;;;;;;;;;;5077193;28;20059;-84
2021/10/07 15:01:23;;;;;;;11.55;3.40;;;;;;;;;;5077009;28;20032;-84
2021/10/07 15:03:49;;;;;;;12.30;3.40;;;;;;;;;;5078010;28;20024;-83
2021/10/07 15:17:13;;;;;;;10.68;3.30;;;;;;;;;;5115210;27;20389;-86
2021/10/07 15:19:39;;;;;;;11.88;2.78;;;;;;;;;;5114558;28;20481;-86
2021/10/07 15:22:12;;;;;;;14.75;3.67;;;;;;;;;;5114836;28;20020;-85
2021/10/07 15:24:38;;;;;;;10.40;3.85;;;;;;;;;;5113404;28;20037;-85
2021/10/07 15:27:04;;;;;;;8.48;3.05;;;;;;;;;;5114734;28;20028;-85
2021/10/07 15:29:33;;;;;;;14.50;3.05;;;;;;;;;;5114624;28;20023;-85
2021/10/07 15:31:59;;;;;;;12.10;3.63;;;;;;;;;;5114636;28;20042;-84
2021/10/07 15:34:25;;;;;;;14.55;3.40;;;;;;;;;;5114115;28;20044;-85
2021/10/07 15:36:51;;;;;;;13.82;5.88;;;;;;;;;;5115193;28;20290;-84